Time;durP1;ratioP1;P1;durP2;ratioP2;P2;SDS_P1;SDS_P2;PMS_P1;PMS_P2;Temp;Humidity;BMP_temperature;BMP_pressure;BME280_temperature;BME280_humidity;BME280_pressure;Samples;Min_cycle;Max_cycle;Signal;HPM_P1;HPM_P2
2022/08/31 00:12:46;;;;;;;;;;;;;;;25.06;62.53;100028.78;31412225;28;20361;-76
2022/08/31 00:27:48;;;;;;;;;;;;;;;25.11;61.56;100030.75;31432246;28;19928;-75
2022/08/31 00:42:50;;;;;;;;;;;;;;;25.12;61.18;100057.28;31406593;28;19928;-75
2022/08/31 00:57:54;;;;;;;;;;;;;;;24.85;62.49;100047.13;31417285;28;19967;-75
2022/08/31 01:12:57;;;;;;;;;;;;;;;24.88;61.76;100032.22;31410824;28;20008;-75
2022/08/31 01:27:59;;;;;;;;;;;;;;;24.83;61.86;100028.97;31441509;28;19924;-74
2022/08/31 01:43:01;;;;;;;;;;;;;;;24.75;63.40;100005.09;31436595;28;19927;-75
2022/08/31 01:58:04;;;;;;;;;;;;;;;24.70;66.87;99998.31;31436105;28;19931;-76
2022/08/31 02:13:06;;;;;;;;;;;;;;;24.59;68.91;99992.84;31419333;28;19928;-75
2022/08/31 02:28:11;;;;;;;;;;;;;;;24.56;66.22;99999.47;31416151;28;19921;-75
2022/08/31 02:43:13;;;;;;;;;;;;;;;24.56;66.36;100001.50;31423319;28;19920;-75
2022/08/31 02:58:25;;;;;;;;;;;;;;;24.50;66.40;100015.41;31458141;28;19920;-76
2022/08/31 03:13:28;;;;;;;;;;;;;;;24.49;66.39;100022.22;31424814;28;19924;-74
2022/08/31 03:28:31;;;;;;;;;;;;;;;24.61;65.65;100009.75;31423453;28;20289;-76
2022/08/31 03:43:35;;;;;;;;;;;;;;;24.72;65.23;100026.31;31455607;28;19920;-76
2022/08/31 03:58:37;;;;;;;;;;;;;;;25.09;64.49;100028.50;31437866;28;19924;-75
2022/08/31 04:13:39;;;;;;;;;;;;;;;25.41;63.61;100030.69;31415407;28;19928;-76
2022/08/31 04:28:41;;;;;;;;;;;;;;;25.79;62.84;100037.06;31423639;28;19924;-77
2022/08/31 04:43:45;;;;;;;;;;;;;;;25.75;62.64;100036.63;31426882;28;19943;-77
2022/08/31 04:58:51;;;;;;;;;;;;;;;25.86;62.87;100042.03;31441866;28;20003;-76
2022/08/31 05:13:55;;;;;;;;;;;;;;;25.98;61.53;100037.84;31452361;28;20620;-77
2022/08/31 05:28:58;;;;;;;;;;;;;;;26.01;62.48;100034.00;31434691;28;19939;-76
2022/08/31 05:44:01;;;;;;;;;;;;;;;25.77;64.02;100051.50;31454329;28;19929;-76
2022/08/31 05:59:03;;;;;;;;;;;;;;;25.68;65.66;100059.47;31437842;28;19920;-75
2022/08/31 06:14:05;;;;;;;;;;;;;;;25.48;68.97;100080.91;31418809;28;19924;-77
2022/08/31 06:29:08;;;;;;;;;;;;;;;25.02;78.13;100084.63;31424728;28;19925;-75
2022/08/31 06:44:11;;;;;;;;;;;;;;;24.40;82.30;100080.78;31416237;28;19924;-75
2022/08/31 06:59:13;;;;;;;;;;;;;;;24.99;81.89;100073.81;31430140;28;19920;-76
2022/08/31 07:14:17;;;;;;;;;;;;;;;25.66;72.96;100064.78;31375442;28;1324857;-76
2022/08/31 07:29:20;;;;;;;;;;;;;;;25.91;78.28;100087.75;31447981;28;19963;-77
2022/08/31 07:44:22;;;;;;;;;;;;;;;25.80;76.27;100083.06;31428492;28;19970;-76
2022/08/31 07:59:25;;;;;;;;;;;;;;;25.68;78.75;100092.81;31432315;28;19920;-86
2022/08/31 08:14:27;;;;;;;;;;;;;;;26.17;77.03;100088.66;31437938;28;19920;-78
2022/08/31 08:29:31;;;;;;;;;;;;;;;26.63;68.63;100061.69;31433795;28;19927;-76
2022/08/31 08:44:35;;;;;;;;;;;;;;;27.49;67.78;100050.03;31442061;28;20348;-80
2022/08/31 08:59:37;;;;;;;;;;;;;;;30.15;55.43;100034.00;31413635;28;19921;-83
2022/08/31 09:15:02;;;;;;;;;;;;;;;31.28;48.43;100021.31;31411064;28;19924;-79
2022/08/31 09:30:05;;;;;;;;;;;;;;;32.09;42.21;100014.44;31380028;28;19931;-76
2022/08/31 09:45:17;;;;;;;;;;;;;;;32.69;39.42;99995.66;31426348;28;19988;-76
2022/08/31 10:00:39;;;;;;;;;;;;;;;33.43;38.03;100000.34;31437840;28;19931;-77
2022/08/31 10:16:30;;;;;;;;;;;;;;;33.08;38.70;99981.97;31459526;28;19920;-80
2022/08/31 10:32:22;;;;;;;;;;;;;;;32.14;40.23;99968.53;31415333;28;19962;-79
2022/08/31 10:47:28;;;;;;;;;;;;;;;33.45;38.52;99961.13;31456917;28;19982;-76
2022/08/31 11:02:54;;;;;;;;;;;;;;;34.85;33.54;99937.41;31449595;28;20031;-79
2022/08/31 11:18:14;;;;;;;;;;;;;;;36.14;31.43;99917.66;31447803;28;19934;-79
2022/08/31 11:33:21;;;;;;;;;;;;;;;36.83;31.28;99905.38;31449393;28;19920;-80
2022/08/31 11:48:43;;;;;;;;;;;;;;;34.39;33.40;99898.00;31428880;28;19920;-81
2022/08/31 12:03:50;;;;;;;;;;;;;;;32.81;33.65;99866.66;31435241;28;19924;-78
2022/08/31 12:19:04;;;;;;;;;;;;;;;31.75;37.45;99863.47;31441743;28;19920;-81
2022/08/31 12:34:10;;;;;;;;;;;;;;;31.34;37.90;99841.66;31416012;28;19927;-81
2022/08/31 12:49:27;;;;;;;;;;;;;;;31.01;38.14;99840.84;31429988;28;19928;-80
2022/08/31 13:04:30;;;;;;;;;;;;;;;31.02;37.93;99845.13;31424377;28;19927;-80
2022/08/31 13:19:33;;;;;;;;;;;;;;;30.98;38.94;99830.75;31439491;28;19924;-80
2022/08/31 13:34:40;;;;;;;;;;;;;;;30.76;39.03;99833.09;31445480;28;19954;-76
2022/08/31 13:49:43;;;;;;;;;;;;;;;30.86;39.48;99817.19;31433699;28;19974;-77
2022/08/31 14:04:59;;;;;;;;;;;;;;;30.62;40.66;99815.03;31427059;28;20328;-77
2022/08/31 14:20:19;;;;;;;;;;;;;;;30.31;41.62;99785.59;31437864;28;19924;-80
2022/08/31 14:35:25;;;;;;;;;;;;;;;30.24;41.94;99801.06;31416492;28;19928;-81
2022/08/31 14:50:28;;;;;;;;;;;;;;;30.28;41.95;99787.44;31406137;28;19920;-79
2022/08/31 15:05:37;;;;;;;;;;;;;;;29.92;43.07;99793.28;31400285;28;19943;-83
2022/08/31 15:20:40;;;;;;;;;;;;;;;29.60;44.31;99791.03;31397591;28;19946;-78
2022/08/31 15:35:42;;;;;;;;;;;;;;;29.30;45.95;99788.16;31414015;28;19924;-80
2022/08/31 15:50:46;;;;;;;;;;;;;;;29.20;46.02;99801.94;31422970;28;19935;-81
2022/08/31 16:05:48;;;;;;;;;;;;;;;28.95;47.17;99818.44;31405398;28;19939;-84
2022/08/31 16:20:50;;;;;;;;;;;;;;;28.74;48.10;99824.09;31404566;28;20507;-82
2022/08/31 16:35:52;;;;;;;;;;;;;;;28.38;49.65;99829.66;31398209;28;19927;-77
2022/08/31 16:50:54;;;;;;;;;;;;;;;28.12;51.37;99841.72;31400203;28;20390;-78
2022/08/31 17:05:56;;;;;;;;;;;;;;;27.97;52.09;99866.72;31408418;28;19935;-79
2022/08/31 17:20:57;;;;;;;;;;;;;;;27.56;52.16;99892.50;31438095;28;19920;-79
2022/08/31 17:50:43;;;;;;;10.83;7.30;;;;;;;27.19;51.22;99921.44;31138993;28;20442;-76
2022/08/31 18:05:47;;;;;;;17.60;10.10;;;;;;;26.78;51.04;99945.00;31046157;28;20078;-75
2022/08/31 18:20:49;;;;;;;10.15;6.45;;;;;;;26.41;50.33;99945.91;31025506;28;20050;-77
2022/08/31 18:35:51;;;;;;;12.73;6.32;;;;;;;26.11;51.19;99946.13;31058264;28;20062;-77
2022/08/31 18:50:54;;;;;;;12.95;7.60;;;;;;;26.01;52.04;99936.66;31003269;28;20072;-77
2022/08/31 19:05:57;;;;;;;9.43;6.18;;;;;;;25.75;52.76;99931.72;30969525;28;20100;-76
2022/08/31 19:21:10;;;;;;;11.63;6.63;;;;;;;25.49;54.74;99910.09;30974118;28;20042;-75
2022/08/31 19:36:14;;;;;;;13.05;6.30;;;;;;;25.24;54.49;99919.78;30959080;28;20403;-76
2022/08/31 19:51:21;;;;;;;8.15;5.47;;;;;;;25.05;56.04;99922.50;30961469;28;20109;-77
2022/08/31 20:06:27;;;;;;;12.35;6.70;;;;;;;24.83;56.16;99917.94;30959675;28;20055;-76
2022/08/31 20:21:33;;;;;;;10.55;5.63;;;;;;;24.71;56.55;99902.69;30970613;28;20058;-77
2022/08/31 20:36:39;;;;;;;8.52;4.90;;;;;;;24.69;56.43;99910.78;30940762;28;20093;-75
2022/08/31 20:51:41;;;;;;;9.88;4.13;;;;;;;24.71;56.30;99933.22;30950652;28;20051;-75
2022/08/31 21:06:44;;;;;;;7.10;3.90;;;;;;;24.63;55.43;99923.97;30939064;28;20042;-77
2022/08/31 21:21:48;;;;;;;8.32;4.00;;;;;;;24.51;55.39;99942.00;30948685;28;20507;-77
2022/08/31 21:36:50;;;;;;;8.63;4.53;;;;;;;24.28;56.86;99918.50;30966967;28;20058;-75
2022/08/31 21:51:54;;;;;;;11.50;3.87;;;;;;;23.91;59.24;99883.72;30952105;28;20043;-77
2022/08/31 22:06:58;;;;;;;8.43;3.92;;;;;;;23.68;61.21;99896.22;30954079;28;20047;-76
2022/08/31 22:22:02;;;;;;;6.57;3.60;;;;;;;23.16;63.12;99879.59;30955462;28;20410;-76
2022/08/31 22:37:05;;;;;;;7.28;3.33;;;;;;;23.07;62.68;99886.94;30961308;28;20086;-76
2022/08/31 22:52:07;;;;;;;7.37;3.20;;;;;;;23.02;64.05;99865.56;30964044;28;20109;-76
2022/08/31 23:07:10;;;;;;;7.50;3.07;;;;;;;22.88;65.18;99882.50;30942981;28;20386;-75
2022/08/31 23:22:13;;;;;;;5.78;3.25;;;;;;;22.77;65.78;99884.03;30943933;28;20043;-77
2022/08/31 23:37:17;;;;;;;8.63;3.47;;;;;;;22.71;65.82;99891.56;30946402;28;20086;-76
2022/08/31 23:52:20;;;;;;;;;;;;;;;22.62;67.59;99883.53;30936517;28;20702;-76
